sensor_id;sensor_type;location;lat;lon;timestamp;pressure;altitude;pressure_sealevel;temperature;humidity
64628;BME280;59036;50.960;0.314;2023-02-19T00:01:46;100585.68;;;5.39;100.00
64628;BME280;59036;50.960;0.314;2023-02-19T00:04:15;100588.74;;;5.25;100.00
64628;BME280;59036;50.960;0.314;2023-02-19T00:06:43;100595.07;;;4.90;100.00
64628;BME280;59036;50.960;0.314;2023-02-19T00:09:13;100600.76;;;5.55;100.00
64628;BME280;59036;50.960;0.314;2023-02-19T00:11:41;100603.57;;;4.94;100.00
64628;BME280;59036;50.960;0.314;2023-02-19T00:14:09;100606.85;;;4.88;100.00
64628;BME280;59036;50.960;0.314;2023-02-19T00:16:38;100617.42;;;5.00;100.00
64628;BME280;59036;50.960;0.314;2023-02-19T00:19:07;100621.50;;;5.37;100.00
64628;BME280;59036;50.960;0.314;2023-02-19T00:21:37;100617.33;;;5.63;100.00
64628;BME280;59036;50.960;0.314;2023-02-19T00:24:06;100619.64;;;6.30;100.00
64628;BME280;59036;50.960;0.314;2023-02-19T00:26:34;100627.25;;;5.16;100.00
64628;BME280;59036;50.960;0.314;2023-02-19T00:29:01;100627.39;;;5.19;100.00
64628;BME280;59036;50.960;0.314;2023-02-19T00:31:29;100626.56;;;5.03;100.00
64628;BME280;59036;50.960;0.314;2023-02-19T00:33:58;100622.67;;;5.25;100.00
64628;BME280;59036;50.960;0.314;2023-02-19T00:36:27;100623.48;;;4.42;100.00
64628;BME280;59036;50.960;0.314;2023-02-19T00:38:54;100618.90;;;4.61;100.00
64628;BME280;59036;50.960;0.314;2023-02-19T00:41:22;100625.84;;;4.49;100.00
64628;BME280;59036;50.960;0.314;2023-02-19T00:43:51;100636.63;;;4.64;100.00
64628;BME280;59036;50.960;0.314;2023-02-19T00:46:20;100642.33;;;4.55;100.00
64628;BME280;59036;50.960;0.314;2023-02-19T00:48:49;100645.53;;;4.57;100.00
64628;BME280;59036;50.960;0.314;2023-02-19T00:51:17;100644.38;;;5.40;100.00
64628;BME280;59036;50.960;0.314;2023-02-19T00:53:44;100643.90;;;5.00;100.00
64628;BME280;59036;50.960;0.314;2023-02-19T00:56:12;100645.92;;;4.40;100.00
64628;BME280;59036;50.960;0.314;2023-02-19T00:58:39;100655.19;;;4.64;100.00
64628;BME280;59036;50.960;0.314;2023-02-19T01:01:08;100659.84;;;4.67;100.00
64628;BME280;59036;50.960;0.314;2023-02-19T01:03:37;100662.50;;;4.41;100.00
64628;BME280;59036;50.960;0.314;2023-02-19T01:06:06;100667.44;;;3.85;100.00
64628;BME280;59036;50.960;0.314;2023-02-19T01:08:33;100662.67;;;4.86;100.00
64628;BME280;59036;50.960;0.314;2023-02-19T01:11:03;100666.81;;;4.61;100.00
64628;BME280;59036;50.960;0.314;2023-02-19T01:13:32;100672.58;;;5.15;100.00
64628;BME280;59036;50.960;0.314;2023-02-19T01:16:03;100676.35;;;4.44;100.00
64628;BME280;59036;50.960;0.314;2023-02-19T01:18:30;100666.38;;;4.65;100.00
64628;BME280;59036;50.960;0.314;2023-02-19T01:20:58;100672.88;;;5.04;100.00
64628;BME280;59036;50.960;0.314;2023-02-19T01:23:25;100674.66;;;5.46;100.00
64628;BME280;59036;50.960;0.314;2023-02-19T01:25:52;100679.89;;;4.85;100.00
64628;BME280;59036;50.960;0.314;2023-02-19T01:28:19;100681.29;;;5.59;100.00
64628;BME280;59036;50.960;0.314;2023-02-19T01:30:46;100681.28;;;4.86;100.00
64628;BME280;59036;50.960;0.314;2023-02-19T01:33:14;100685.44;;;4.61;100.00
64628;BME280;59036;50.960;0.314;2023-02-19T01:35:41;100689.38;;;5.58;100.00
64628;BME280;59036;50.960;0.314;2023-02-19T01:38:08;100689.64;;;5.11;100.00
64628;BME280;59036;50.960;0.314;2023-02-19T01:40:34;100690.27;;;5.46;100.00
64628;BME280;59036;50.960;0.314;2023-02-19T01:43:02;100688.41;;;5.41;100.00
64628;BME280;59036;50.960;0.314;2023-02-19T01:45:30;100692.70;;;5.53;100.00
64628;BME280;59036;50.960;0.314;2023-02-19T01:48:05;100688.09;;;5.21;100.00
64628;BME280;59036;50.960;0.314;2023-02-19T01:50:39;100678.55;;;5.55;100.00
64628;BME280;59036;50.960;0.314;2023-02-19T01:53:08;100677.65;;;5.99;100.00
64628;BME280;59036;50.960;0.314;2023-02-19T01:55:38;100683.60;;;5.42;100.00
64628;BME280;59036;50.960;0.314;2023-02-19T01:58:07;100681.70;;;6.15;100.00
64628;BME280;59036;50.960;0.314;2023-02-19T02:00:36;100684.80;;;5.19;100.00
64628;BME280;59036;50.960;0.314;2023-02-19T02:03:03;100690.01;;;5.40;100.00
64628;BME280;59036;50.960;0.314;2023-02-19T02:05:40;100691.23;;;5.77;100.00
64628;BME280;59036;50.960;0.314;2023-02-19T02:08:11;100699.53;;;5.64;100.00
64628;BME280;59036;50.960;0.314;2023-02-19T02:10:39;100702.34;;;5.66;100.00
64628;BME280;59036;50.960;0.314;2023-02-19T02:13:06;100702.43;;;6.36;100.00
64628;BME280;59036;50.960;0.314;2023-02-19T02:15:40;100698.57;;;5.19;100.00
64628;BME280;59036;50.960;0.314;2023-02-19T02:18:18;100695.23;;;5.67;100.00
64628;BME280;59036;50.960;0.314;2023-02-19T02:21:02;100695.82;;;5.78;100.00
64628;BME280;59036;50.960;0.314;2023-02-19T02:23:41;100693.21;;;5.27;100.00
64628;BME280;59036;50.960;0.314;2023-02-19T02:26:24;100696.56;;;5.37;100.00
64628;BME280;59036;50.960;0.314;2023-02-19T02:29:31;100697.65;;;5.04;100.00
64628;BME280;59036;50.960;0.314;2023-02-19T02:32:04;100700.01;;;4.69;100.00
64628;BME280;59036;50.960;0.314;2023-02-19T02:34:41;100701.85;;;4.63;100.00
64628;BME280;59036;50.960;0.314;2023-02-19T02:37:12;100698.59;;;4.96;100.00
64628;BME280;59036;50.960;0.314;2023-02-19T02:39:41;100698.57;;;5.59;100.00
64628;BME280;59036;50.960;0.314;2023-02-19T02:42:10;100696.22;;;4.82;100.00
64628;BME280;59036;50.960;0.314;2023-02-19T02:44:41;100701.94;;;4.93;100.00
64628;BME280;59036;50.960;0.314;2023-02-19T02:47:09;100705.11;;;4.82;100.00
64628;BME280;59036;50.960;0.314;2023-02-19T02:49:36;100708.16;;;4.79;100.00
64628;BME280;59036;50.960;0.314;2023-02-19T02:52:05;100713.28;;;5.27;100.00
64628;BME280;59036;50.960;0.314;2023-02-19T02:54:33;100709.41;;;5.77;100.00
64628;BME280;59036;50.960;0.314;2023-02-19T02:57:01;100714.35;;;4.91;100.00
64628;BME280;59036;50.960;0.314;2023-02-19T02:59:32;100712.65;;;4.41;100.00
64628;BME280;59036;50.960;0.314;2023-02-19T03:02:03;100707.82;;;4.87;100.00
64628;BME280;59036;50.960;0.314;2023-02-19T03:04:34;100705.49;;;5.44;100.00
64628;BME280;59036;50.960;0.314;2023-02-19T03:07:06;100709.45;;;5.77;100.00
64628;BME280;59036;50.960;0.314;2023-02-19T03:09:38;100712.75;;;4.76;100.00
64628;BME280;59036;50.960;0.314;2023-02-19T03:12:10;100718.78;;;5.03;100.00
64628;BME280;59036;50.960;0.314;2023-02-19T03:14:42;100717.55;;;4.71;100.00
64628;BME280;59036;50.960;0.314;2023-02-19T03:17:14;100720.53;;;4.91;100.00
64628;BME280;59036;50.960;0.314;2023-02-19T03:19:44;100726.46;;;5.32;100.00
64628;BME280;59036;50.960;0.314;2023-02-19T03:22:17;100726.08;;;5.33;100.00
64628;BME280;59036;50.960;0.314;2023-02-19T03:24:49;100723.61;;;5.14;100.00
64628;BME280;59036;50.960;0.314;2023-02-19T03:27:19;100724.37;;;4.68;100.00
64628;BME280;59036;50.960;0.314;2023-02-19T03:29:49;100728.57;;;5.01;100.00
64628;BME280;59036;50.960;0.314;2023-02-19T03:32:20;100737.42;;;4.20;100.00
64628;BME280;59036;50.960;0.314;2023-02-19T03:34:53;100742.71;;;4.35;100.00
64628;BME280;59036;50.960;0.314;2023-02-19T03:37:25;100743.30;;;4.56;100.00
64628;BME280;59036;50.960;0.314;2023-02-19T03:39:55;100737.94;;;5.24;100.00
64628;BME280;59036;50.960;0.314;2023-02-19T03:42:31;100743.10;;;4.18;100.00
64628;BME280;59036;50.960;0.314;2023-02-19T03:45:15;100740.82;;;4.08;100.00
64628;BME280;59036;50.960;0.314;2023-02-19T03:47:48;100745.08;;;4.26;100.00
64628;BME280;59036;50.960;0.314;2023-02-19T03:50:20;100747.71;;;3.99;100.00
64628;BME280;59036;50.960;0.314;2023-02-19T03:52:56;100751.52;;;4.07;100.00
64628;BME280;59036;50.960;0.314;2023-02-19T03:55:29;100761.09;;;4.02;100.00
64628;BME280;59036;50.960;0.314;2023-02-19T03:58:04;100760.28;;;4.05;100.00
64628;BME280;59036;50.960;0.314;2023-02-19T04:00:37;100761.59;;;4.09;100.00
64628;BME280;59036;50.960;0.314;2023-02-19T04:03:10;100756.09;;;4.80;100.00
64628;BME280;59036;50.960;0.314;2023-02-19T04:05:46;100767.35;;;4.36;100.00
64628;BME280;59036;50.960;0.314;2023-02-19T04:08:16;100765.57;;;5.04;100.00
64628;BME280;59036;50.960;0.314;2023-02-19T04:10:45;100766.03;;;4.89;100.00
64628;BME280;59036;50.960;0.314;2023-02-19T04:13:18;100772.85;;;3.47;100.00
64628;BME280;59036;50.960;0.314;2023-02-19T04:15:48;100781.08;;;3.69;100.00
64628;BME280;59036;50.960;0.314;2023-02-19T04:18:20;100783.22;;;3.89;100.00
64628;BME280;59036;50.960;0.314;2023-02-19T04:20:49;100788.52;;;3.80;100.00
64628;BME280;59036;50.960;0.314;2023-02-19T04:23:19;100788.68;;;3.68;100.00
64628;BME280;59036;50.960;0.314;2023-02-19T04:25:52;100795.71;;;3.41;100.00
64628;BME280;59036;50.960;0.314;2023-02-19T04:28:20;100803.50;;;3.96;100.00
64628;BME280;59036;50.960;0.314;2023-02-19T04:30:48;100798.54;;;3.81;100.00
64628;BME280;59036;50.960;0.314;2023-02-19T04:33:15;100806.26;;;4.30;100.00
64628;BME280;59036;50.960;0.314;2023-02-19T04:35:42;100807.57;;;4.30;100.00
64628;BME280;59036;50.960;0.314;2023-02-19T04:38:09;100809.92;;;4.51;100.00
64628;BME280;59036;50.960;0.314;2023-02-19T04:40:37;100806.87;;;4.79;100.00
64628;BME280;59036;50.960;0.314;2023-02-19T04:43:04;100808.69;;;4.17;100.00
64628;BME280;59036;50.960;0.314;2023-02-19T04:45:31;100809.31;;;4.18;100.00
64628;BME280;59036;50.960;0.314;2023-02-19T04:47:59;100808.02;;;4.19;100.00
64628;BME280;59036;50.960;0.314;2023-02-19T04:50:26;100815.48;;;4.64;100.00
64628;BME280;59036;50.960;0.314;2023-02-19T04:52:54;100823.68;;;4.79;100.00
64628;BME280;59036;50.960;0.314;2023-02-19T04:55:21;100822.36;;;4.02;100.00
64628;BME280;59036;50.960;0.314;2023-02-19T04:57:48;100830.79;;;4.25;100.00
64628;BME280;59036;50.960;0.314;2023-02-19T05:00:15;100835.89;;;4.12;100.00
64628;BME280;59036;50.960;0.314;2023-02-19T05:02:43;100836.67;;;3.73;100.00
64628;BME280;59036;50.960;0.314;2023-02-19T05:05:10;100846.64;;;4.13;100.00
64628;BME280;59036;50.960;0.314;2023-02-19T05:07:38;100846.54;;;3.95;100.00
64628;BME280;59036;50.960;0.314;2023-02-19T05:10:05;100844.97;;;4.69;100.00
64628;BME280;59036;50.960;0.314;2023-02-19T05:12:32;100849.57;;;4.54;100.00
64628;BME280;59036;50.960;0.314;2023-02-19T05:14:59;100851.26;;;4.20;100.00
64628;BME280;59036;50.960;0.314;2023-02-19T05:17:26;100852.39;;;4.23;100.00
64628;BME280;59036;50.960;0.314;2023-02-19T05:19:53;100849.62;;;4.71;100.00
64628;BME280;59036;50.960;0.314;2023-02-19T05:22:20;100848.20;;;5.33;100.00
64628;BME280;59036;50.960;0.314;2023-02-19T05:24:48;100861.37;;;4.15;100.00
64628;BME280;59036;50.960;0.314;2023-02-19T05:27:14;100865.49;;;4.73;100.00
64628;BME280;59036;50.960;0.314;2023-02-19T05:29:42;100867.70;;;5.17;100.00
64628;BME280;59036;50.960;0.314;2023-02-19T05:32:10;100866.29;;;4.63;100.00
64628;BME280;59036;50.960;0.314;2023-02-19T05:34:37;100869.25;;;4.26;100.00
64628;BME280;59036;50.960;0.314;2023-02-19T05:37:05;100871.73;;;3.88;100.00
64628;BME280;59036;50.960;0.314;2023-02-19T05:39:32;100874.72;;;5.03;100.00
64628;BME280;59036;50.960;0.314;2023-02-19T05:41:59;100874.49;;;4.17;100.00
64628;BME280;59036;50.960;0.314;2023-02-19T05:44:27;100872.72;;;4.09;100.00
64628;BME280;59036;50.960;0.314;2023-02-19T05:46:54;100870.54;;;4.69;100.00
64628;BME280;59036;50.960;0.314;2023-02-19T05:49:21;100880.76;;;4.54;100.00
64628;BME280;59036;50.960;0.314;2023-02-19T05:51:49;100886.23;;;4.35;100.00
64628;BME280;59036;50.960;0.314;2023-02-19T05:54:16;100881.89;;;4.64;100.00
64628;BME280;59036;50.960;0.314;2023-02-19T05:56:44;100886.74;;;4.49;100.00
64628;BME280;59036;50.960;0.314;2023-02-19T05:59:16;100879.71;;;4.73;100.00
64628;BME280;59036;50.960;0.314;2023-02-19T06:01:43;100884.34;;;4.14;100.00
64628;BME280;59036;50.960;0.314;2023-02-19T06:04:11;100884.87;;;4.85;100.00
64628;BME280;59036;50.960;0.314;2023-02-19T06:06:38;100886.66;;;4.55;100.00
64628;BME280;59036;50.960;0.314;2023-02-19T06:09:06;100888.61;;;4.90;100.00
64628;BME280;59036;50.960;0.314;2023-02-19T06:11:34;100896.65;;;4.79;100.00
64628;BME280;59036;50.960;0.314;2023-02-19T06:14:03;100900.12;;;4.96;100.00
64628;BME280;59036;50.960;0.314;2023-02-19T06:16:30;100893.59;;;4.30;100.00
64628;BME280;59036;50.960;0.314;2023-02-19T06:18:58;100893.92;;;4.93;100.00
64628;BME280;59036;50.960;0.314;2023-02-19T06:21:27;100886.12;;;4.68;100.00
64628;BME280;59036;50.960;0.314;2023-02-19T06:23:55;100883.57;;;4.41;100.00
64628;BME280;59036;50.960;0.314;2023-02-19T06:26:23;100889.97;;;3.97;100.00
64628;BME280;59036;50.960;0.314;2023-02-19T06:28:51;100894.20;;;3.87;100.00
64628;BME280;59036;50.960;0.314;2023-02-19T06:31:20;100906.23;;;4.23;100.00
64628;BME280;59036;50.960;0.314;2023-02-19T06:33:48;100905.72;;;4.11;100.00
64628;BME280;59036;50.960;0.314;2023-02-19T06:36:18;100906.86;;;4.09;100.00
64628;BME280;59036;50.960;0.314;2023-02-19T06:38:46;100912.96;;;3.78;100.00
64628;BME280;59036;50.960;0.314;2023-02-19T06:41:13;100908.97;;;3.02;100.00
64628;BME280;59036;50.960;0.314;2023-02-19T06:43:41;100909.35;;;3.35;100.00
64628;BME280;59036;50.960;0.314;2023-02-19T06:46:09;100906.61;;;2.98;100.00
64628;BME280;59036;50.960;0.314;2023-02-19T06:48:38;100908.52;;;3.51;100.00
64628;BME280;59036;50.960;0.314;2023-02-19T06:51:06;100915.86;;;2.64;100.00
64628;BME280;59036;50.960;0.314;2023-02-19T06:53:34;100928.20;;;2.92;100.00
64628;BME280;59036;50.960;0.314;2023-02-19T06:56:04;100931.70;;;3.00;100.00
64628;BME280;59036;50.960;0.314;2023-02-19T06:58:32;100929.72;;;3.35;100.00
64628;BME280;59036;50.960;0.314;2023-02-19T07:00:59;100920.39;;;3.46;100.00
64628;BME280;59036;50.960;0.314;2023-02-19T07:03:26;100920.00;;;3.31;100.00
64628;BME280;59036;50.960;0.314;2023-02-19T07:05:54;100920.30;;;3.17;100.00
64628;BME280;59036;50.960;0.314;2023-02-19T07:08:20;100920.56;;;3.31;100.00
64628;BME280;59036;50.960;0.314;2023-02-19T07:10:54;100917.16;;;3.59;100.00
64628;BME280;59036;50.960;0.314;2023-02-19T07:13:21;100924.54;;;3.55;100.00
64628;BME280;59036;50.960;0.314;2023-02-19T07:15:49;100931.48;;;3.31;100.00
64628;BME280;59036;50.960;0.314;2023-02-19T07:18:17;100936.06;;;3.76;100.00
64628;BME280;59036;50.960;0.314;2023-02-19T07:20:44;100938.58;;;2.99;100.00
64628;BME280;59036;50.960;0.314;2023-02-19T07:23:11;100939.88;;;3.19;100.00
64628;BME280;59036;50.960;0.314;2023-02-19T07:25:38;100939.62;;;3.35;100.00
64628;BME280;59036;50.960;0.314;2023-02-19T07:28:05;100941.09;;;4.21;100.00
64628;BME280;59036;50.960;0.314;2023-02-19T07:30:32;100950.98;;;4.17;100.00
64628;BME280;59036;50.960;0.314;2023-02-19T07:32:59;100954.00;;;4.16;100.00
64628;BME280;59036;50.960;0.314;2023-02-19T07:35:26;100955.58;;;3.19;100.00
64628;BME280;59036;50.960;0.314;2023-02-19T07:37:54;100959.70;;;2.75;100.00
64628;BME280;59036;50.960;0.314;2023-02-19T07:40:21;100968.10;;;3.08;100.00
64628;BME280;59036;50.960;0.314;2023-02-19T07:42:48;100972.18;;;2.87;100.00
64628;BME280;59036;50.960;0.314;2023-02-19T07:45:16;100984.04;;;3.21;100.00
64628;BME280;59036;50.960;0.314;2023-02-19T07:47:43;100988.98;;;3.12;100.00
64628;BME280;59036;50.960;0.314;2023-02-19T07:50:10;100992.40;;;3.23;100.00
64628;BME280;59036;50.960;0.314;2023-02-19T07:52:37;100994.53;;;3.22;100.00
64628;BME280;59036;50.960;0.314;2023-02-19T07:55:05;100990.69;;;2.97;100.00
64628;BME280;59036;50.960;0.314;2023-02-19T07:57:32;100978.61;;;3.42;100.00
64628;BME280;59036;50.960;0.314;2023-02-19T08:00:01;100976.02;;;3.46;100.00
64628;BME280;59036;50.960;0.314;2023-02-19T08:02:28;100976.50;;;3.70;100.00
64628;BME280;59036;50.960;0.314;2023-02-19T08:04:55;100983.18;;;4.04;100.00
64628;BME280;59036;50.960;0.314;2023-02-19T08:07:23;100991.77;;;4.04;100.00
64628;BME280;59036;50.960;0.314;2023-02-19T08:09:50;100997.92;;;4.41;100.00
64628;BME280;59036;50.960;0.314;2023-02-19T08:12:17;101004.82;;;3.90;100.00
64628;BME280;59036;50.960;0.314;2023-02-19T08:14:44;101002.91;;;4.35;100.00
64628;BME280;59036;50.960;0.314;2023-02-19T08:17:11;100999.49;;;3.92;100.00
64628;BME280;59036;50.960;0.314;2023-02-19T08:19:38;101001.73;;;3.88;100.00
64628;BME280;59036;50.960;0.314;2023-02-19T08:22:06;101000.58;;;3.83;100.00
64628;BME280;59036;50.960;0.314;2023-02-19T08:24:33;100994.85;;;3.92;100.00
64628;BME280;59036;50.960;0.314;2023-02-19T08:27:00;100992.71;;;4.44;100.00
64628;BME280;59036;50.960;0.314;2023-02-19T08:29:27;101001.34;;;4.03;100.00
64628;BME280;59036;50.960;0.314;2023-02-19T08:31:55;101005.24;;;4.45;100.00
64628;BME280;59036;50.960;0.314;2023-02-19T08:34:21;101010.47;;;4.26;100.00
64628;BME280;59036;50.960;0.314;2023-02-19T08:36:49;101016.07;;;4.44;100.00
64628;BME280;59036;50.960;0.314;2023-02-19T08:39:16;101019.56;;;4.61;100.00
64628;BME280;59036;50.960;0.314;2023-02-19T08:41:43;101028.61;;;4.21;100.00
64628;BME280;59036;50.960;0.314;2023-02-19T08:44:10;101017.42;;;4.48;100.00
64628;BME280;59036;50.960;0.314;2023-02-19T08:46:38;101024.90;;;4.28;100.00
64628;BME280;59036;50.960;0.314;2023-02-19T08:49:05;101028.32;;;4.42;100.00
64628;BME280;59036;50.960;0.314;2023-02-19T08:51:32;101046.04;;;4.87;100.00
64628;BME280;59036;50.960;0.314;2023-02-19T08:54:01;101054.29;;;4.38;100.00
64628;BME280;59036;50.960;0.314;2023-02-19T08:56:29;101064.36;;;3.62;100.00
64628;BME280;59036;50.960;0.314;2023-02-19T08:58:56;101066.57;;;4.82;100.00
64628;BME280;59036;50.960;0.314;2023-02-19T09:01:23;101070.33;;;3.94;100.00
64628;BME280;59036;50.960;0.314;2023-02-19T09:03:51;101055.75;;;4.40;100.00
64628;BME280;59036;50.960;0.314;2023-02-19T09:06:19;101043.30;;;4.43;100.00
64628;BME280;59036;50.960;0.314;2023-02-19T09:08:47;101050.41;;;4.26;100.00
64628;BME280;59036;50.960;0.314;2023-02-19T09:11:14;101060.90;;;4.86;100.00
64628;BME280;59036;50.960;0.314;2023-02-19T09:13:41;101066.60;;;4.33;100.00
64628;BME280;59036;50.960;0.314;2023-02-19T09:16:09;101069.65;;;4.11;100.00
64628;BME280;59036;50.960;0.314;2023-02-19T09:18:36;101064.14;;;4.92;100.00
64628;BME280;59036;50.960;0.314;2023-02-19T09:21:04;101065.43;;;4.95;100.00
64628;BME280;59036;50.960;0.314;2023-02-19T09:23:33;101067.45;;;4.93;100.00
64628;BME280;59036;50.960;0.314;2023-02-19T09:26:00;101065.36;;;5.26;100.00
64628;BME280;59036;50.960;0.314;2023-02-19T09:28:28;101061.18;;;4.46;100.00
64628;BME280;59036;50.960;0.314;2023-02-19T09:30:55;101048.42;;;4.46;100.00
64628;BME280;59036;50.960;0.314;2023-02-19T09:33:23;101050.40;;;4.31;100.00
64628;BME280;59036;50.960;0.314;2023-02-19T09:35:50;101063.19;;;4.45;100.00
64628;BME280;59036;50.960;0.314;2023-02-19T09:38:17;101055.98;;;4.20;100.00
64628;BME280;59036;50.960;0.314;2023-02-19T09:40:45;101061.66;;;4.37;100.00
64628;BME280;59036;50.960;0.314;2023-02-19T09:43:15;101083.18;;;5.09;100.00
64628;BME280;59036;50.960;0.314;2023-02-19T09:45:44;101085.02;;;5.31;100.00
64628;BME280;59036;50.960;0.314;2023-02-19T09:48:11;101079.06;;;5.21;100.00
64628;BME280;59036;50.960;0.314;2023-02-19T09:50:42;101075.25;;;5.52;100.00
64628;BME280;59036;50.960;0.314;2023-02-19T09:53:15;101078.38;;;5.87;100.00
64628;BME280;59036;50.960;0.314;2023-02-19T09:55:44;101077.80;;;5.79;100.00
64628;BME280;59036;50.960;0.314;2023-02-19T09:58:22;101088.50;;;6.00;100.00
64628;BME280;59036;50.960;0.314;2023-02-19T10:00:51;101084.54;;;5.67;100.00
64628;BME280;59036;50.960;0.314;2023-02-19T10:03:22;101085.56;;;5.46;100.00
64628;BME280;59036;50.960;0.314;2023-02-19T10:05:52;101070.72;;;6.81;100.00
64628;BME280;59036;50.960;0.314;2023-02-19T10:08:20;101071.89;;;6.72;100.00
64628;BME280;59036;50.960;0.314;2023-02-19T10:10:47;101077.71;;;6.10;100.00
64628;BME280;59036;50.960;0.314;2023-02-19T10:13:19;101081.06;;;6.90;100.00
64628;BME280;59036;50.960;0.314;2023-02-19T10:15:49;101083.31;;;6.73;100.00
64628;BME280;59036;50.960;0.314;2023-02-19T10:18:18;101094.18;;;7.20;100.00
64628;BME280;59036;50.960;0.314;2023-02-19T10:20:47;101095.32;;;8.16;100.00
64628;BME280;59036;50.960;0.314;2023-02-19T10:23:14;101103.87;;;7.12;100.00
64628;BME280;59036;50.960;0.314;2023-02-19T10:25:46;101108.69;;;7.60;100.00
64628;BME280;59036;50.960;0.314;2023-02-19T10:28:17;101117.06;;;6.38;100.00
64628;BME280;59036;50.960;0.314;2023-02-19T10:30:50;101117.52;;;6.67;100.00
64628;BME280;59036;50.960;0.314;2023-02-19T10:33:19;101120.11;;;7.03;100.00
64628;BME280;59036;50.960;0.314;2023-02-19T10:35:53;101115.88;;;7.34;100.00
64628;BME280;59036;50.960;0.314;2023-02-19T10:38:22;101113.31;;;6.87;100.00
64628;BME280;59036;50.960;0.314;2023-02-19T10:40:57;101111.34;;;7.30;100.00
64628;BME280;59036;50.960;0.314;2023-02-19T10:43:27;101102.86;;;7.25;100.00
64628;BME280;59036;50.960;0.314;2023-02-19T10:45:56;101106.84;;;7.98;100.00
64628;BME280;59036;50.960;0.314;2023-02-19T10:48:28;101108.63;;;7.44;100.00
64628;BME280;59036;50.960;0.314;2023-02-19T10:50:59;101100.95;;;7.99;100.00
64628;BME280;59036;50.960;0.314;2023-02-19T10:53:40;101105.73;;;7.29;100.00
64628;BME280;59036;50.960;0.314;2023-02-19T10:56:10;101100.89;;;7.41;100.00
64628;BME280;59036;50.960;0.314;2023-02-19T10:58:39;101094.25;;;6.54;100.00
64628;BME280;59036;50.960;0.314;2023-02-19T11:01:13;101097.00;;;7.52;100.00
64628;BME280;59036;50.960;0.314;2023-02-19T11:03:41;101099.43;;;8.14;100.00
64628;BME280;59036;50.960;0.314;2023-02-19T11:06:10;101105.96;;;8.51;100.00
64628;BME280;59036;50.960;0.314;2023-02-19T11:08:47;101106.71;;;7.46;100.00
64628;BME280;59036;50.960;0.314;2023-02-19T11:11:28;101110.72;;;8.00;100.00
64628;BME280;59036;50.960;0.314;2023-02-19T11:13:57;101106.02;;;8.03;100.00
64628;BME280;59036;50.960;0.314;2023-02-19T11:16:38;101114.68;;;8.24;100.00
64628;BME280;59036;50.960;0.314;2023-02-19T11:19:23;101111.54;;;8.08;100.00
64628;BME280;59036;50.960;0.314;2023-02-19T11:21:51;101114.31;;;8.81;100.00
64628;BME280;59036;50.960;0.314;2023-02-19T11:24:25;101117.93;;;7.53;100.00
64628;BME280;59036;50.960;0.314;2023-02-19T11:26:54;101116.66;;;8.45;100.00
64628;BME280;59036;50.960;0.314;2023-02-19T11:29:23;101114.70;;;8.50;100.00
64628;BME280;59036;50.960;0.314;2023-02-19T11:31:51;101107.27;;;7.94;100.00
64628;BME280;59036;50.960;0.314;2023-02-19T11:34:28;101109.28;;;7.71;100.00
64628;BME280;59036;50.960;0.314;2023-02-19T11:37:13;101114.57;;;8.43;100.00
64628;BME280;59036;50.960;0.314;2023-02-19T11:39:43;101120.26;;;7.90;100.00
64628;BME280;59036;50.960;0.314;2023-02-19T11:42:47;101124.84;;;7.65;100.00
64628;BME280;59036;50.960;0.314;2023-02-19T11:45:32;101129.52;;;8.37;100.00
64628;BME280;59036;50.960;0.314;2023-02-19T11:48:17;101130.42;;;8.14;100.00
64628;BME280;59036;50.960;0.314;2023-02-19T11:50:57;101133.27;;;8.87;100.00
64628;BME280;59036;50.960;0.314;2023-02-19T11:53:29;101126.69;;;9.17;100.00
64628;BME280;59036;50.960;0.314;2023-02-19T11:56:09;101120.04;;;9.76;100.00
64628;BME280;59036;50.960;0.314;2023-02-19T11:58:54;101120.18;;;9.57;100.00
64628;BME280;59036;50.960;0.314;2023-02-19T12:01:30;101121.55;;;10.13;100.00
64628;BME280;59036;50.960;0.314;2023-02-19T12:04:55;101120.86;;;9.70;100.00
64628;BME280;59036;50.960;0.314;2023-02-19T12:08:29;101116.48;;;8.99;100.00
64628;BME280;59036;50.960;0.314;2023-02-19T12:11:20;101102.01;;;10.07;100.00
64628;BME280;59036;50.960;0.314;2023-02-19T12:14:12;101111.94;;;9.49;100.00
64628;BME280;59036;50.960;0.314;2023-02-19T12:16:51;101120.77;;;10.61;100.00
64628;BME280;59036;50.960;0.314;2023-02-19T12:19:43;101125.92;;;10.83;100.00
64628;BME280;59036;50.960;0.314;2023-02-19T12:22:26;101119.38;;;11.81;100.00
64628;BME280;59036;50.960;0.314;2023-02-19T12:25:13;101116.41;;;11.97;100.00
64628;BME280;59036;50.960;0.314;2023-02-19T12:27:57;101115.02;;;10.97;100.00
64628;BME280;59036;50.960;0.314;2023-02-19T12:30:36;101103.21;;;11.36;100.00
64628;BME280;59036;50.960;0.314;2023-02-19T12:33:32;101092.18;;;11.47;100.00
64628;BME280;59036;50.960;0.314;2023-02-19T12:36:07;101093.68;;;11.10;100.00
64628;BME280;59036;50.960;0.314;2023-02-19T12:38:43;101096.80;;;10.28;100.00
64628;BME280;59036;50.960;0.314;2023-02-19T12:41:19;101090.30;;;10.00;100.00
64628;BME280;59036;50.960;0.314;2023-02-19T12:43:54;101086.21;;;11.45;100.00
64628;BME280;59036;50.960;0.314;2023-02-19T12:46:28;101077.23;;;11.41;100.00
64628;BME280;59036;50.960;0.314;2023-02-19T12:49:03;101075.74;;;11.19;100.00
64628;BME280;59036;50.960;0.314;2023-02-19T12:51:38;101068.96;;;12.43;100.00
64628;BME280;59036;50.960;0.314;2023-02-19T12:54:13;101062.94;;;12.50;100.00
64628;BME280;59036;50.960;0.314;2023-02-19T12:56:47;101073.12;;;11.40;100.00
64628;BME280;59036;50.960;0.314;2023-02-19T12:59:21;101076.14;;;10.81;100.00
64628;BME280;59036;50.960;0.314;2023-02-19T13:01:55;101081.37;;;10.88;100.00
64628;BME280;59036;50.960;0.314;2023-02-19T13:04:31;101090.55;;;10.61;100.00
64628;BME280;59036;50.960;0.314;2023-02-19T13:07:06;101093.54;;;10.77;100.00
64628;BME280;59036;50.960;0.314;2023-02-19T13:09:37;101093.58;;;11.01;100.00